Aérodrome :
LOGIN :

S'inscrire | Disclaimer

   EN    FR    IT 

 










Légende :    VFR   VFR Marginal   IFR   IFR Intensif   IFR Très Intensif
Visi : 
Plafond : 
>= 8 km
>= 3000ft
5 à 8 km
1000 à 3000 ft
1500m à 5 km
500 à 1000 ft
800 à 1500m
200 à 500 ft
< 800m
< 200 ft
Symboles :   Orages  Brouillard  Fortes neiges  Fortes précipitations  Vent > 20 kt
SIGMETs :   Divers  Orages  Givrage  Turbulence  Onde Orograph.  Cendres Volcan.







- Altitude de l'aérodrome : 156 ft
- Code IATA : LCC


LIBN - Lecce Galatine (military)

DERNIER METAR :
  • 231555Z 32003KT 9999 FEW020CB BKN040 14/14 Q1004 RMK BKN VIS MIN 9999 WIND THR14 32004KT WIND THR32 35004KT BLU

METARs EXPIRÉS :
  • 231455Z 36005KT 9999 FEW035CB BKN040 14/14 Q1005 RMK BKN VIS MIN 9999 WIND THR14 35005KT WIND THR32 36005KT BLU
  • 231355Z 35012KT 7000 -TSRA FEW020CB SCT025 BKN040 13/13 Q1005 RETS RERAGR RMK BKN VIS MIN 7000 WIND THR14 36013KT WIND THR32 36012KT WHT

TAF TAF LIBN
Valide du 23 à 15h jusqu'au 24 à 00h UTC


231400Z 2315/2324 33020KT 7000 FEW020CB SCT025
TEMPO 2315/2318 33020G33KT 4000 TSRA FEW015CB BKN020
Pas de NOTAMs connus pour ce terrain.
3 SIGMETs publiés pour la FIR Brindisi (LIBB) :
 
Orages noyés dans la masse
LIBB SIGMET 9 VALID 231700/232100 LIIB
LIBB BRINDISI FIR EMBD TS FCST SE OF LINE N4112 E01504 - N4305 E01510 TOP FL260 STNR NC=
Turbulence forte
LIBB SIGMET 8 VALID 231301/231700 LIIB
LIBB BRINDISI FIR SEV TURB FCST S OF LINE N4011 E01546 - N3932 E01904 FL390/450 STNR WKN=
Orages noyés dans la masse
LIBB SIGMET 7 VALID 231300/231700 LIIB
LIBB BRINDISI FIR EMBD TS FCST SE OF LINE N4112 E01504 - N4219 E01623 TOP FL260 STNR NC=



MET'MAP, la Météo Aéronautique d'un coup d'oeil ! - Copyright ORBIFLY Décembre 2007 - Disclaimer

ORBIFLY MET'MAP TEAM :

Programmation & Développement : Alexandra Zaïnal
Conception & Développement : Baudouin d'Aumeries
Co-Programmation & Développement : Marc-Olivier Méhu
Soutien technique & logistique : Manuel Goepfert

Contact : metmap@orbifly.com




SOURCES & CREDITS :

   NOAA